Time;durP1;ratioP1;P1;durP2;ratioP2;P2;SDS_P1;SDS_P2;PMS_P1;PMS_P2;Temp;Humidity;BMP_temperature;BMP_pressure;BME280_temperature;BME280_humidity;BME280_pressure;Samples;Min_cycle;Max_cycle;Signal;HPM_P1;HPM_P2
2022/10/10 00:01:32;;;;;;;8.33;4.20;;;12.40;72.20;;;;;;5000035;28;20622;-77
2022/10/10 00:04:01;;;;;;;10.30;4.20;;;12.40;72.20;;;;;;4996193;28;20462;-77
2022/10/10 00:06:31;;;;;;;11.57;4.37;;;12.40;72.20;;;;;;5010312;28;20530;-79
2022/10/10 00:09:01;;;;;;;6.93;3.60;;;12.30;72.20;;;;;;4997076;28;20497;-77
2022/10/10 00:11:29;;;;;;;8.20;3.60;;;12.30;72.30;;;;;;4997522;28;20462;-78
2022/10/10 00:13:57;;;;;;;10.20;4.33;;;12.30;72.30;;;;;;4996511;28;21314;-79
2022/10/10 00:16:25;;;;;;;8.93;4.00;;;12.30;72.30;;;;;;4994903;28;20471;-76
2022/10/10 00:18:53;;;;;;;9.93;4.17;;;12.30;72.50;;;;;;4997703;28;20488;-77
2022/10/10 00:21:21;;;;;;;9.20;4.40;;;12.30;72.50;;;;;;4997090;28;20462;-77
2022/10/10 00:23:51;;;;;;;6.67;4.30;;;12.20;72.50;;;;;;4998536;28;20965;-77
2022/10/10 00:26:19;;;;;;;9.20;4.20;;;12.20;72.50;;;;;;4992764;28;20528;-76
2022/10/10 00:28:48;;;;;;;9.27;4.87;;;12.20;72.50;;;;;;4995604;28;21022;-76
2022/10/10 00:31:16;;;;;;;7.83;4.10;;;12.20;72.50;;;;;;4994319;28;20457;-77
2022/10/10 00:33:44;;;;;;;7.00;3.70;;;12.20;72.60;;;;;;4994048;28;20532;-76
2022/10/10 00:36:13;;;;;;;7.33;4.40;;;12.10;72.60;;;;;;4997120;28;20448;-76
2022/10/10 00:38:41;;;;;;;7.37;4.20;;;12.10;72.60;;;;;;4999110;28;20527;-78
2022/10/10 00:41:10;;;;;;;8.90;4.63;;;12.00;72.70;;;;;;4998064;28;20456;-78
2022/10/10 00:43:38;;;;;;;9.77;4.30;;;12.00;72.60;;;;;;4996487;28;20462;-77
2022/10/10 00:46:06;;;;;;;8.80;4.10;;;12.00;72.70;;;;;;4997384;28;20499;-77
2022/10/10 00:48:38;;;;;;;7.57;3.90;;;11.90;72.70;;;;;;4997002;28;20484;-76
2022/10/10 00:51:10;;;;;;;7.97;3.83;;;11.90;72.70;;;;;;4996451;28;21036;-76
2022/10/10 00:53:41;;;;;;;9.47;4.30;;;11.90;72.80;;;;;;4994578;28;20559;-76
2022/10/10 00:56:12;;;;;;;7.40;3.67;;;11.80;72.90;;;;;;4994916;28;20485;-77
2022/10/10 00:58:43;;;;;;;6.43;4.00;;;11.80;73.00;;;;;;4995472;28;21265;-77
2022/10/10 01:01:11;;;;;;;7.53;3.87;;;11.80;73.00;;;;;;5001943;28;20519;-78
2022/10/10 01:03:39;;;;;;;7.27;3.90;;;11.80;73.00;;;;;;4993338;28;20485;-77
2022/10/10 01:06:07;;;;;;;7.97;4.10;;;11.70;73.00;;;;;;4996641;28;21082;-78
2022/10/10 01:08:36;;;;;;;8.17;4.80;;;11.70;73.00;;;;;;5009226;28;20481;-77
2022/10/10 01:11:18;;;;;;;5.43;3.53;;;11.70;73.00;;;;;;4997940;28;20530;-77
2022/10/10 01:13:55;;;;;;;7.30;4.07;;;11.70;73.10;;;;;;4995948;28;20516;-76
2022/10/10 01:16:29;;;;;;;7.13;3.70;;;11.60;73.20;;;;;;5013671;28;20499;-78
2022/10/10 01:19:08;;;;;;;7.80;4.00;;;11.60;73.20;;;;;;5009937;28;20542;-77
2022/10/10 01:21:50;;;;;;;7.17;4.30;;;11.60;73.30;;;;;;4996571;28;20558;-77
2022/10/10 01:24:31;;;;;;;7.40;3.80;;;11.60;73.30;;;;;;5012487;28;20497;-77
2022/10/10 01:27:16;;;;;;;7.47;4.17;;;11.50;73.20;;;;;;4995826;28;20573;-77
2022/10/10 01:29:50;;;;;;;8.77;3.83;;;11.50;73.30;;;;;;5011300;28;20492;-77
2022/10/10 01:32:25;;;;;;;7.10;4.07;;;11.50;73.30;;;;;;4995866;28;20504;-78
2022/10/10 01:35:07;;;;;;;9.70;3.73;;;11.40;73.30;;;;;;4997743;28;20507;-78
2022/10/10 01:37:46;;;;;;;6.67;4.20;;;11.40;73.30;;;;;;5011077;28;20870;-78
2022/10/10 01:40:23;;;;;;;9.23;4.60;;;11.40;73.40;;;;;;4995140;28;20496;-77
2022/10/10 01:42:54;;;;;;;10.87;3.67;;;11.40;73.40;;;;;;4996080;28;20949;-77
2022/10/10 01:45:24;;;;;;;6.77;3.60;;;11.30;73.40;;;;;;4996828;28;20454;-77
2022/10/10 01:47:55;;;;;;;10.23;3.47;;;11.30;73.40;;;;;;4992875;28;20515;-77
2022/10/10 01:50:26;;;;;;;12.37;4.30;;;11.30;73.40;;;;;;4996770;28;20904;-77
2022/10/10 01:53:05;;;;;;;10.83;4.60;;;11.20;73.40;;;;;;5012711;28;20449;-77
2022/10/10 01:55:56;;;;;;;7.20;3.90;;;11.20;73.40;;;;;;5011969;28;20484;-78
2022/10/10 01:58:53;;;;;;;9.93;4.10;;;11.20;73.50;;;;;;4997160;28;20469;-77
2022/10/10 02:01:26;;;;;;;6.83;3.80;;;11.20;73.60;;;;;;4991600;28;20456;-78
2022/10/10 02:04:01;;;;;;;7.50;3.83;;;11.20;73.60;;;;;;4994915;28;20507;-78
2022/10/10 02:06:35;;;;;;;6.40;3.50;;;11.20;73.60;;;;;;4994605;28;20475;-77
2022/10/10 02:09:07;;;;;;;5.90;3.27;;;11.10;73.60;;;;;;4997133;28;21471;-77
2022/10/10 02:11:37;;;;;;;8.50;4.40;;;11.10;73.60;;;;;;5001198;28;20452;-78
2022/10/10 02:14:11;;;;;;;9.93;4.70;;;11.10;73.60;;;;;;5011367;28;20463;-78
2022/10/10 02:16:45;;;;;;;6.70;4.17;;;11.10;73.60;;;;;;4999828;28;20885;-77
2022/10/10 02:19:17;;;;;;;7.40;4.33;;;11.10;73.70;;;;;;4990315;28;20542;-78
2022/10/10 02:21:46;;;;;;;8.17;4.10;;;11.00;73.70;;;;;;5015696;28;21040;-78
2022/10/10 02:24:15;;;;;;;8.77;5.27;;;11.00;73.70;;;;;;4998130;28;20966;-78
2022/10/10 02:26:47;;;;;;;9.60;5.10;;;10.90;73.80;;;;;;5000508;28;20957;-78
2022/10/10 02:29:19;;;;;;;11.53;4.13;;;10.90;73.80;;;;;;4997477;28;20484;-79
2022/10/10 02:31:56;;;;;;;6.80;4.30;;;10.90;73.80;;;;;;4998107;28;20543;-78
2022/10/10 02:34:29;;;;;;;8.17;4.23;;;10.90;73.90;;;;;;4994508;28;21012;-78
2022/10/10 02:37:02;;;;;;;8.90;4.90;;;10.90;73.90;;;;;;5014309;28;20914;-78
2022/10/10 02:39:34;;;;;;;11.73;4.67;;;10.90;73.90;;;;;;5001289;28;20500;-77
2022/10/10 02:42:04;;;;;;;9.17;4.13;;;10.90;74.00;;;;;;5001826;28;20521;-78
2022/10/10 02:44:33;;;;;;;6.50;4.00;;;10.90;73.90;;;;;;5000636;28;20883;-78
2022/10/10 02:47:03;;;;;;;6.33;4.00;;;10.90;73.90;;;;;;5000709;28;20510;-78
2022/10/10 02:49:32;;;;;;;5.93;3.50;;;10.80;73.90;;;;;;4999175;28;20485;-78
2022/10/10 02:52:01;;;;;;;5.10;3.43;;;10.80;73.90;;;;;;5013131;28;20456;-78
2022/10/10 02:54:29;;;;;;;7.20;3.80;;;10.80;74.00;;;;;;4996831;28;20947;-78
2022/10/10 02:56:57;;;;;;;6.10;3.97;;;10.80;74.10;;;;;;5001427;28;20703;-78
2022/10/10 02:59:25;;;;;;;6.67;3.67;;;10.80;74.10;;;;;;5011860;28;20794;-78
2022/10/10 03:01:53;;;;;;;7.70;4.50;;;10.90;74.20;;;;;;4998088;28;20506;-78
2022/10/10 03:04:23;;;;;;;9.00;4.60;;;10.90;74.20;;;;;;4993146;28;21045;-78
2022/10/10 03:06:52;;;;;;;9.30;4.70;;;10.90;74.20;;;;;;4996000;28;20442;-78
2022/10/10 03:09:20;;;;;;;7.23;4.57;;;10.90;74.20;;;;;;4999730;28;20564;-78
2022/10/10 03:11:48;;;;;;;10.73;4.80;;;10.80;74.20;;;;;;4997332;28;20991;-78
2022/10/10 03:14:16;;;;;;;7.60;4.63;;;10.80;74.40;;;;;;4999795;28;21030;-78
2022/10/10 03:16:44;;;;;;;10.13;4.77;;;10.80;74.50;;;;;;4999914;28;20494;-77
2022/10/10 03:19:12;;;;;;;9.37;4.90;;;10.90;74.60;;;;;;4997948;28;20485;-78
2022/10/10 03:21:41;;;;;;;9.07;4.70;;;10.90;74.60;;;;;;4998881;28;20464;-78
2022/10/10 03:24:09;;;;;;;16.43;4.20;;;10.90;74.50;;;;;;5001104;28;20468;-78
2022/10/10 03:26:37;;;;;;;6.57;4.27;;;10.90;74.50;;;;;;4999682;28;20450;-77
2022/10/10 03:29:05;;;;;;;7.53;4.33;;;10.90;74.70;;;;;;4997724;28;20480;-77
2022/10/10 03:31:33;;;;;;;7.87;4.60;;;10.90;74.70;;;;;;4999402;28;20453;-78
2022/10/10 03:34:01;;;;;;;8.27;3.93;;;10.90;74.70;;;;;;4997134;28;22288;-78
2022/10/10 03:36:30;;;;;;;8.57;4.53;;;10.90;74.70;;;;;;5015721;28;20567;-77
2022/10/10 03:38:59;;;;;;;7.83;4.07;;;10.90;74.60;;;;;;4998684;28;20485;-77
2022/10/10 03:41:27;;;;;;;10.17;4.80;;;10.80;74.60;;;;;;4997405;28;20523;-77
2022/10/10 03:43:55;;;;;;;8.60;4.57;;;10.80;74.70;;;;;;4996442;28;20532;-77
2022/10/10 03:46:23;;;;;;;7.73;4.63;;;10.80;74.70;;;;;;4999502;28;20468;-77
2022/10/10 03:48:51;;;;;;;10.00;4.87;;;10.80;74.70;;;;;;5001028;28;20527;-78
2022/10/10 03:51:20;;;;;;;9.60;4.60;;;10.80;74.70;;;;;;5000053;28;20580;-76
2022/10/10 03:53:48;;;;;;;7.77;4.60;;;10.80;74.60;;;;;;4995058;28;20983;-79
2022/10/10 03:56:17;;;;;;;7.23;4.80;;;10.70;74.50;;;;;;5001867;28;20481;-77
2022/10/10 03:58:45;;;;;;;6.87;3.57;;;10.70;74.60;;;;;;5001513;28;20480;-77
2022/10/10 04:01:13;;;;;;;9.63;4.53;;;10.70;74.60;;;;;;4993012;28;20485;-76
2022/10/10 04:03:41;;;;;;;8.00;4.33;;;10.70;74.60;;;;;;4997661;28;20966;-77
2022/10/10 04:06:09;;;;;;;7.20;4.03;;;10.60;74.60;;;;;;4996836;28;20531;-78
2022/10/10 04:08:37;;;;;;;7.40;3.90;;;10.60;74.60;;;;;;4998609;28;20886;-78
2022/10/10 04:11:05;;;;;;;6.90;4.17;;;10.60;74.50;;;;;;5000058;28;20460;-79
2022/10/10 04:13:34;;;;;;;7.07;4.23;;;10.60;74.50;;;;;;5009353;28;20457;-77
2022/10/10 04:16:02;;;;;;;7.90;4.33;;;10.50;74.60;;;;;;4997989;28;21181;-78
2022/10/10 04:18:30;;;;;;;8.70;4.60;;;10.50;74.70;;;;;;5000956;28;20476;-78
2022/10/10 04:21:02;;;;;;;8.50;4.50;;;10.50;74.70;;;;;;4998503;28;20618;-78
2022/10/10 04:23:30;;;;;;;9.13;4.40;;;10.50;74.70;;;;;;4997174;28;20452;-79
2022/10/10 04:25:58;;;;;;;12.60;4.30;;;10.50;74.80;;;;;;4998582;28;20488;-76
2022/10/10 04:28:25;;;;;;;8.60;3.97;;;10.50;74.90;;;;;;4998244;28;20473;-78
2022/10/10 04:30:55;;;;;;;11.23;5.00;;;10.50;74.90;;;;;;5010437;28;20477;-77
2022/10/10 04:33:23;;;;;;;8.20;4.40;;;10.50;74.90;;;;;;4997778;28;20465;-79
2022/10/10 04:35:51;;;;;;;6.77;3.90;;;10.50;74.90;;;;;;4998201;28;20552;-77
2022/10/10 04:38:21;;;;;;;9.57;4.10;;;10.50;74.90;;;;;;4997637;28;20455;-78
2022/10/10 04:40:50;;;;;;;9.90;4.80;;;10.50;74.90;;;;;;4997457;28;20475;-77
2022/10/10 04:43:19;;;;;;;9.73;4.53;;;10.50;75.00;;;;;;5012044;28;20485;-77
2022/10/10 04:45:47;;;;;;;8.20;5.07;;;10.50;75.00;;;;;;4997873;28;21429;-78
2022/10/10 04:48:16;;;;;;;8.97;4.80;;;10.50;75.00;;;;;;5001482;28;20461;-77
2022/10/10 04:50:44;;;;;;;8.47;4.93;;;10.50;75.10;;;;;;4998933;28;20456;-78
2022/10/10 04:53:12;;;;;;;9.40;5.83;;;10.50;75.10;;;;;;5012527;28;20465;-77
2022/10/10 04:55:40;;;;;;;10.77;5.60;;;10.50;75.10;;;;;;4994251;28;20457;-78
2022/10/10 04:58:08;;;;;;;10.67;5.37;;;10.50;75.10;;;;;;4995266;28;20484;-77
2022/10/10 05:00:37;;;;;;;18.97;8.30;;;10.40;75.10;;;;;;5001970;28;21087;-78
2022/10/10 05:03:06;;;;;;;14.10;6.93;;;10.40;75.10;;;;;;5014015;28;20465;-79
2022/10/10 05:05:35;;;;;;;11.63;5.63;;;10.40;75.10;;;;;;4996613;28;20485;-77
2022/10/10 05:08:03;;;;;;;10.23;4.90;;;10.40;75.20;;;;;;5000120;28;20461;-78
2022/10/10 05:10:34;;;;;;;9.83;4.97;;;10.40;75.20;;;;;;5003953;28;20476;-78
2022/10/10 05:13:03;;;;;;;7.87;5.03;;;10.40;75.20;;;;;;4995630;28;20878;-78
2022/10/10 05:15:30;;;;;;;9.43;5.40;;;10.40;75.20;;;;;;4998594;28;21034;-77
2022/10/10 05:17:58;;;;;;;9.37;4.70;;;10.40;75.30;;;;;;4999743;28;20487;-78
2022/10/10 05:20:26;;;;;;;10.60;4.10;;;10.40;75.30;;;;;;4998423;28;20473;-77
2022/10/10 05:22:56;;;;;;;8.17;4.77;;;10.40;75.30;;;;;;4994169;28;20465;-78
2022/10/10 05:25:24;;;;;;;8.83;5.13;;;10.40;75.20;;;;;;4997332;28;20453;-79
2022/10/10 05:27:52;;;;;;;8.80;4.60;;;10.40;75.20;;;;;;4997515;28;20468;-76
2022/10/10 05:30:20;;;;;;;8.73;4.53;;;10.40;75.20;;;;;;5000972;28;20477;-77
2022/10/10 05:32:48;;;;;;;9.07;5.20;;;10.40;75.20;;;;;;4997729;28;20524;-78
2022/10/10 05:35:17;;;;;;;9.17;5.20;;;10.40;75.20;;;;;;4997204;28;20483;-78
2022/10/10 05:37:45;;;;;;;10.95;5.45;;;10.30;75.20;;;;;;4995853;28;20478;-78
2022/10/10 05:40:14;;;;;;;11.47;6.00;;;10.30;75.20;;;;;;4997874;28;20658;-78
2022/10/10 05:42:42;;;;;;;9.27;5.80;;;10.30;75.10;;;;;;5010710;28;20461;-78
2022/10/10 05:45:10;;;;;;;12.03;7.20;;;10.20;75.00;;;;;;4997914;28;20811;-76
2022/10/10 05:47:38;;;;;;;10.73;6.60;;;10.20;75.00;;;;;;4997896;28;20456;-79
2022/10/10 05:50:10;;;;;;;17.30;8.17;;;10.10;75.00;;;;;;4996770;28;20504;-77
2022/10/10 05:52:38;;;;;;;14.23;9.30;;;10.10;75.10;;;;;;4997939;28;20461;-76
2022/10/10 05:55:06;;;;;;;16.20;9.90;;;10.10;75.10;;;;;;4998558;28;20941;-78
2022/10/10 05:57:35;;;;;;;14.37;8.93;;;10.10;75.30;;;;;;5010724;28;20556;-78
2022/10/10 06:00:04;;;;;;;15.03;8.10;;;10.10;75.40;;;;;;4997505;28;22246;-78
2022/10/10 06:02:32;;;;;;;17.70;10.20;;;10.10;75.40;;;;;;4997494;28;20496;-78
2022/10/10 06:05:00;;;;;;;40.27;19.80;;;10.10;75.40;;;;;;4995464;28;20504;-79
2022/10/10 06:07:28;;;;;;;35.63;17.87;;;10.10;75.30;;;;;;4999358;28;20477;-77
2022/10/10 06:10:16;;;;;;;26.50;14.77;;;10.10;75.40;;;;;;4997592;28;20488;-78
2022/10/10 06:12:46;;;;;;;15.00;10.10;;;10.10;75.40;;;;;;4996357;28;20549;-77
2022/10/10 06:15:14;;;;;;;16.97;10.67;;;10.10;75.30;;;;;;4997226;28;20520;-77
2022/10/10 06:17:41;;;;;;;12.37;8.77;;;10.10;75.30;;;;;;4997202;28;21131;-79
2022/10/10 06:20:10;;;;;;;16.40;10.23;;;10.00;75.30;;;;;;4996197;28;20523;-78
2022/10/10 06:22:38;;;;;;;15.23;9.27;;;10.00;75.30;;;;;;4996965;28;20495;-77
2022/10/10 06:25:06;;;;;;;14.73;8.43;;;10.00;75.40;;;;;;5014647;28;20461;-79
2022/10/10 06:27:52;;;;;;;25.70;13.00;;;10.00;75.50;;;;;;4995352;28;20475;-77
2022/10/10 06:30:20;;;;;;;17.77;10.53;;;10.00;75.50;;;;;;5000979;28;20477;-80
2022/10/10 06:32:48;;;;;;;12.33;7.30;;;10.00;75.60;;;;;;4991469;28;20468;-78
2022/10/10 06:35:21;;;;;;;11.43;6.37;;;10.00;75.60;;;;;;4999366;28;20543;-80
2022/10/10 06:37:49;;;;;;;10.43;6.30;;;10.00;75.60;;;;;;4994474;28;20544;-79
2022/10/10 06:40:17;;;;;;;9.67;6.73;;;10.00;75.70;;;;;;4995969;28;20486;-78
2022/10/10 06:42:45;;;;;;;10.53;6.63;;;10.00;75.90;;;;;;4995184;28;20515;-79
2022/10/10 06:45:14;;;;;;;15.63;7.60;;;10.10;76.00;;;;;;5012071;28;20457;-79
2022/10/10 06:47:42;;;;;;;13.13;7.27;;;10.20;76.00;;;;;;4996950;28;20460;-77
2022/10/10 06:50:10;;;;;;;12.97;7.90;;;10.20;76.00;;;;;;4996886;28;20534;-79
2022/10/10 06:52:40;;;;;;;12.03;8.13;;;10.20;76.00;;;;;;4995823;28;20464;-77
2022/10/10 06:55:08;;;;;;;11.57;7.53;;;10.30;76.10;;;;;;4996771;28;20450;-78
2022/10/10 06:57:36;;;;;;;13.10;8.13;;;10.40;76.10;;;;;;4996840;28;20986;-78
2022/10/10 07:00:05;;;;;;;12.30;7.43;;;10.40;76.10;;;;;;4995752;28;20551;-78
2022/10/10 07:02:39;;;;;;;17.90;7.63;;;10.40;76.20;;;;;;4998659;28;20512;-77
2022/10/10 07:05:09;;;;;;;15.33;8.53;;;10.50;76.20;;;;;;4999723;28;20449;-77
2022/10/10 07:07:37;;;;;;;13.67;8.07;;;10.50;76.20;;;;;;4997492;28;20978;-77
2022/10/10 07:10:06;;;;;;;12.97;7.40;;;10.50;76.30;;;;;;4999084;28;20468;-78
2022/10/10 07:12:34;;;;;;;9.93;6.40;;;10.60;76.40;;;;;;4996356;28;20468;-78
2022/10/10 07:15:11;;;;;;;16.23;6.07;;;10.60;76.40;;;;;;4999638;28;20484;-79
2022/10/10 07:17:40;;;;;;;12.43;6.10;;;10.70;76.50;;;;;;4992877;28;20481;-78
2022/10/10 07:20:09;;;;;;;11.80;6.40;;;10.70;76.60;;;;;;4997860;28;20476;-79
2022/10/10 07:22:37;;;;;;;10.33;7.90;;;10.80;76.60;;;;;;4999637;28;21000;-79
2022/10/10 07:25:05;;;;;;;20.83;8.93;;;10.80;76.60;;;;;;4997369;28;20456;-79
2022/10/10 07:27:33;;;;;;;17.27;8.20;;;10.80;76.50;;;;;;4998728;28;20449;-79
2022/10/10 07:30:01;;;;;;;16.73;7.93;;;10.80;76.60;;;;;;5009577;28;20488;-77
2022/10/10 07:32:29;;;;;;;13.20;7.13;;;10.90;76.70;;;;;;4994146;28;20457;-79
2022/10/10 07:34:58;;;;;;;15.50;7.47;;;10.90;76.80;;;;;;5001311;28;20543;-77
2022/10/10 07:37:26;;;;;;;12.40;7.13;;;11.00;76.90;;;;;;4998989;28;20487;-80
2022/10/10 07:39:55;;;;;;;13.40;8.20;;;11.00;76.90;;;;;;5005262;28;20543;-79
2022/10/10 07:42:23;;;;;;;18.63;7.33;;;11.10;77.00;;;;;;4999821;28;20537;-78
2022/10/10 07:44:51;;;;;;;11.40;7.40;;;11.10;77.10;;;;;;4998484;28;20468;-78
2022/10/10 07:47:19;;;;;;;11.80;6.80;;;11.20;77.10;;;;;;5000048;28;21137;-79
2022/10/10 07:49:47;;;;;;;15.77;9.77;;;11.30;77.20;;;;;;4998469;28;21271;-79
2022/10/10 07:52:16;;;;;;;11.70;6.93;;;11.30;77.20;;;;;;5000160;28;20488;-79
2022/10/10 07:54:44;;;;;;;10.17;6.40;;;11.40;77.30;;;;;;5013673;28;20469;-79
2022/10/10 07:57:12;;;;;;;12.50;7.00;;;11.50;77.20;;;;;;5018928;28;20460;-79
2022/10/10 07:59:44;;;;;;;15.10;6.60;;;11.50;77.20;;;;;;5000244;28;20528;-78
2022/10/10 08:02:12;;;;;;;14.47;6.80;;;11.60;77.40;;;;;;5016861;28;20460;-79
2022/10/10 08:04:40;;;;;;;11.30;5.87;;;11.60;77.40;;;;;;4999183;28;20457;-79
2022/10/10 08:07:08;;;;;;;10.37;6.10;;;11.60;77.50;;;;;;5012055;28;20462;-80
2022/10/10 08:09:38;;;;;;;10.87;6.50;;;11.70;77.40;;;;;;5000503;28;21120;-77
2022/10/10 08:12:05;;;;;;;11.53;6.67;;;11.70;77.50;;;;;;4999875;28;20464;-79
2022/10/10 08:14:33;;;;;;;11.50;5.50;;;11.80;77.60;;;;;;4999596;28;20456;-79
2022/10/10 08:17:01;;;;;;;11.17;6.57;;;11.80;77.60;;;;;;4998168;28;20877;-77
2022/10/10 08:19:29;;;;;;;11.93;6.90;;;11.90;77.70;;;;;;5000518;28;20520;-80
2022/10/10 08:21:57;;;;;;;11.30;6.20;;;11.90;77.70;;;;;;5000133;28;20461;-79
2022/10/10 08:24:25;;;;;;;10.20;5.60;;;12.00;77.80;;;;;;5001838;28;21383;-79
2022/10/10 08:26:55;;;;;;;10.43;6.00;;;12.00;77.80;;;;;;4997742;28;20464;-79
2022/10/10 08:29:23;;;;;;;9.80;6.03;;;12.10;77.80;;;;;;5000018;28;20556;-79
2022/10/10 08:31:50;;;;;;;10.43;6.27;;;12.10;77.90;;;;;;4993536;28;20454;-79
2022/10/10 08:34:18;;;;;;;11.53;6.50;;;12.20;77.90;;;;;;5008754;28;21102;-79
2022/10/10 08:36:46;;;;;;;16.20;6.17;;;12.20;77.90;;;;;;5001678;28;20847;-79
2022/10/10 08:39:16;;;;;;;11.17;6.03;;;12.30;78.00;;;;;;5003995;28;20579;-79
2022/10/10 08:41:49;;;;;;;10.80;6.40;;;12.30;78.00;;;;;;5014254;28;20508;-79
2022/10/10 08:44:26;;;;;;;11.87;6.33;;;12.40;78.00;;;;;;5001018;28;21044;-79
2022/10/10 08:46:58;;;;;;;15.17;6.40;;;12.50;78.00;;;;;;5013903;28;20530;-79
2022/10/10 08:49:33;;;;;;;11.47;6.40;;;12.50;78.10;;;;;;5017783;28;20492;-79
2022/10/10 08:52:06;;;;;;;9.60;5.83;;;12.60;78.10;;;;;;4995473;28;20858;-79
2022/10/10 08:54:37;;;;;;;13.00;6.57;;;12.60;78.10;;;;;;5014402;28;20461;-79
2022/10/10 08:57:13;;;;;;;9.20;6.20;;;12.60;78.10;;;;;;5001392;28;20462;-79
2022/10/10 08:59:43;;;;;;;11.87;6.63;;;12.70;78.20;;;;;;4998577;28;20892;-79
2022/10/10 09:02:32;;;;;;;12.20;6.90;;;12.70;78.20;;;;;;5000209;28;20470;-79
2022/10/10 09:05:26;;;;;;;10.53;6.77;;;12.80;78.30;;;;;;5018136;28;20472;-79
2022/10/10 09:08:10;;;;;;;15.97;7.67;;;12.80;78.20;;;;;;4998874;28;20472;-79
2022/10/10 09:10:45;;;;;;;12.70;7.40;;;12.90;78.20;;;;;;4996252;28;20450;-79
2022/10/10 09:13:24;;;;;;;13.20;7.40;;;12.90;78.40;;;;;;4999897;28;20464;-79
2022/10/10 09:15:57;;;;;;;13.20;7.87;;;13.00;78.50;;;;;;5000076;28;21145;-79
2022/10/10 09:18:38;;;;;;;13.37;7.37;;;13.10;78.40;;;;;;4997496;28;20477;-79
2022/10/10 09:21:15;;;;;;;14.00;7.13;;;13.10;78.40;;;;;;4999092;28;20515;-79
2022/10/10 09:23:49;;;;;;;12.33;7.60;;;13.20;78.40;;;;;;4993934;28;20460;-78
2022/10/10 09:26:21;;;;;;;11.00;7.50;;;13.20;78.50;;;;;;5001867;28;20459;-78
2022/10/10 09:28:55;;;;;;;12.33;8.30;;;13.20;78.40;;;;;;4998782;28;20500;-79
2022/10/10 09:31:31;;;;;;;14.80;8.07;;;13.20;78.60;;;;;;4996986;28;20461;-79
2022/10/10 09:34:04;;;;;;;13.70;7.57;;;13.30;78.60;;;;;;4993356;28;21258;-79
2022/10/10 09:36:36;;;;;;;14.80;8.20;;;13.30;78.70;;;;;;5009065;28;20461;-79
2022/10/10 09:39:12;;;;;;;14.43;8.60;;;13.30;78.80;;;;;;4998746;28;20507;-79
2022/10/10 09:41:46;;;;;;;14.23;7.57;;;13.40;79.00;;;;;;4998924;28;20510;-79
2022/10/10 09:44:17;;;;;;;18.10;7.70;;;13.50;79.10;;;;;;4999810;28;20543;-79
2022/10/10 09:46:46;;;;;;;10.83;7.50;;;13.50;79.20;;;;;;4995210;28;20458;-79
2022/10/10 09:49:16;;;;;;;18.33;7.27;;;13.60;79.30;;;;;;4996787;28;20476;-79
2022/10/10 09:51:45;;;;;;;11.60;7.30;;;13.70;79.40;;;;;;5010143;28;20979;-78
2022/10/10 09:54:16;;;;;;;10.73;7.60;;;13.70;79.40;;;;;;5011789;28;20460;-78
2022/10/10 09:56:48;;;;;;;10.73;6.90;;;13.80;79.40;;;;;;4998489;28;20452;-76
2022/10/10 09:59:39;;;;;;;11.60;7.20;;;13.90;79.50;;;;;;4998120;28;20485;-78
2022/10/10 10:02:15;;;;;;;11.33;6.60;;;13.90;79.80;;;;;;5001723;28;20460;-78
2022/10/10 10:04:43;;;;;;;16.13;6.60;;;14.00;79.90;;;;;;4996155;28;20464;-78
2022/10/10 10:07:27;;;;;;;16.87;6.70;;;14.10;79.80;;;;;;4995352;28;20485;-79
2022/10/10 10:09:57;;;;;;;9.10;5.77;;;14.10;79.80;;;;;;4995794;28;20489;-77
2022/10/10 10:12:28;;;;;;;10.00;5.50;;;14.20;79.90;;;;;;4999422;28;20542;-79
2022/10/10 10:15:02;;;;;;;13.90;7.27;;;14.30;80.00;;;;;;4996085;28;20569;-77
2022/10/10 10:17:31;;;;;;;13.27;6.60;;;14.40;80.10;;;;;;4996693;28;20973;-79
2022/10/10 10:19:59;;;;;;;9.30;5.70;;;14.50;80.10;;;;;;4994189;28;20481;-79
2022/10/10 10:22:38;;;;;;;13.80;6.23;;;14.60;80.10;;;;;;4998388;28;20995;-79
2022/10/10 10:25:30;;;;;;;9.77;5.83;;;14.60;80.20;;;;;;4999275;28;21055;-77
2022/10/10 10:28:16;;;;;;;10.97;6.37;;;14.70;80.30;;;;;;4993819;28;20520;-77
2022/10/10 10:30:45;;;;;;;12.30;5.30;;;14.80;80.40;;;;;;4997810;28;20565;-77
2022/10/10 10:33:25;;;;;;;9.57;5.40;;;14.90;80.60;;;;;;4994896;28;20461;-79
2022/10/10 10:36:05;;;;;;;10.23;5.90;;;15.00;80.60;;;;;;4995735;28;20531;-78
2022/10/10 10:38:42;;;;;;;8.60;5.20;;;15.00;80.60;;;;;;5010718;28;20499;-79
2022/10/10 10:41:18;;;;;;;12.77;6.07;;;15.10;80.50;;;;;;4999441;28;20484;-79
2022/10/10 10:44:11;;;;;;;9.77;5.60;;;15.20;80.60;;;;;;4994372;28;20905;-79
2022/10/10 10:46:51;;;;;;;10.00;6.17;;;15.30;80.70;;;;;;4996942;28;20457;-79
2022/10/10 10:49:28;;;;;;;10.87;5.90;;;15.30;80.70;;;;;;4999597;28;21178;-80
2022/10/10 10:52:13;;;;;;;8.03;5.10;;;15.40;80.80;;;;;;5011803;28;20871;-79
2022/10/10 10:55:03;;;;;;;12.03;5.20;;;15.50;80.80;;;;;;4998078;28;20538;-79
2022/10/10 10:57:44;;;;;;;8.40;4.80;;;15.50;80.70;;;;;;4997527;28;20961;-77
2022/10/10 11:00:42;;;;;;;10.27;5.43;;;15.60;80.70;;;;;;4995884;28;20513;-79
2022/10/10 11:03:46;;;;;;;11.80;5.90;;;15.70;80.70;;;;;;5002764;28;20457;-79
2022/10/10 11:06:50;;;;;;;10.40;5.73;;;15.70;80.70;;;;;;4997090;28;20493;-79
2022/10/10 11:09:41;;;;;;;10.80;5.10;;;15.80;80.60;;;;;;5002213;28;20508;-77
2022/10/10 11:12:28;;;;;;;9.00;5.00;;;15.90;80.60;;;;;;5003085;28;20555;-79
2022/10/10 11:15:01;;;;;;;14.23;4.87;;;15.90;80.70;;;;;;5004208;28;20456;-79
2022/10/10 11:17:36;;;;;;;9.60;4.80;;;16.00;80.50;;;;;;5000993;28;20449;-79
2022/10/10 11:20:16;;;;;;;12.23;5.50;;;16.10;80.60;;;;;;5001525;28;20550;-78
2022/10/10 11:22:51;;;;;;;13.30;5.30;;;16.10;80.70;;;;;;4997600;28;20511;-77
2022/10/10 11:25:23;;;;;;;16.07;5.27;;;16.20;80.70;;;;;;5000873;28;20461;-77
2022/10/10 11:27:55;;;;;;;7.60;4.57;;;16.30;80.50;;;;;;4999900;28;20457;-78
2022/10/10 11:30:24;;;;;;;11.27;4.77;;;16.40;80.50;;;;;;5001614;28;20534;-79
2022/10/10 11:32:56;;;;;;;11.07;4.70;;;16.40;80.30;;;;;;5000459;28;20499;-77
2022/10/10 11:35:32;;;;;;;11.30;4.43;;;16.50;80.30;;;;;;5000471;28;20455;-79
2022/10/10 11:38:10;;;;;;;8.47;3.77;;;16.50;80.40;;;;;;4998975;28;20469;-79
2022/10/10 11:40:57;;;;;;;9.83;4.80;;;16.60;80.40;;;;;;4998299;28;20480;-79
2022/10/10 11:43:33;;;;;;;11.20;4.90;;;16.60;80.30;;;;;;5001855;28;20492;-79
2022/10/10 11:46:11;;;;;;;15.53;4.27;;;16.70;80.20;;;;;;5000281;28;21015;-80
2022/10/10 11:48:45;;;;;;;8.40;4.90;;;16.70;80.10;;;;;;5000871;28;20484;-77
2022/10/10 11:51:22;;;;;;;10.53;4.70;;;16.80;80.10;;;;;;4999805;28;20538;-77
2022/10/10 11:53:56;;;;;;;9.57;4.50;;;16.90;80.10;;;;;;5000984;28;20464;-78
2022/10/10 11:56:31;;;;;;;9.20;4.80;;;17.00;79.90;;;;;;4998545;28;20453;-79
2022/10/10 11:59:07;;;;;;;12.40;5.10;;;17.10;79.70;;;;;;5016038;28;20502;-78
2022/10/10 12:01:38;;;;;;;9.07;4.73;;;17.10;79.60;;;;;;5001074;28;20567;-78
2022/10/10 12:04:06;;;;;;;9.20;4.37;;;17.10;79.70;;;;;;5000367;28;21189;-78
2022/10/10 12:06:38;;;;;;;10.50;4.83;;;17.20;79.50;;;;;;5001592;28;20452;-79
2022/10/10 12:09:12;;;;;;;11.27;4.43;;;17.20;79.40;;;;;;4995787;28;20484;-78
2022/10/10 12:11:46;;;;;;;17.63;4.77;;;17.20;79.50;;;;;;4998028;28;20457;-79
2022/10/10 12:14:17;;;;;;;8.80;4.60;;;17.20;79.40;;;;;;5003438;28;20472;-79
2022/10/10 12:16:46;;;;;;;9.23;3.83;;;17.20;79.40;;;;;;5000342;28;20445;-77
2022/10/10 12:19:19;;;;;;;11.60;4.43;;;17.30;79.40;;;;;;4999713;28;20492;-78
2022/10/10 12:21:59;;;;;;;12.73;4.40;;;17.30;79.40;;;;;;5001166;28;20485;-80
2022/10/10 12:24:30;;;;;;;10.40;4.07;;;17.40;79.30;;;;;;4996564;28;20456;-77
2022/10/10 12:27:41;;;;;;;7.50;4.03;;;17.40;79.20;;;;;;5002083;28;20457;-78
2022/10/10 12:30:26;;;;;;;10.13;3.50;;;17.50;79.20;;;;;;5001258;28;20473;-79
2022/10/10 12:32:54;;;;;;;9.60;3.73;;;17.60;79.10;;;;;;4998499;28;20454;-79
2022/10/10 12:35:37;;;;;;;8.57;4.00;;;17.60;79.10;;;;;;4999513;28;20515;-78
2022/10/10 12:38:29;;;;;;;17.60;4.03;;;17.70;79.00;;;;;;4996293;28;20465;-79
2022/10/10 12:41:08;;;;;;;14.33;4.17;;;17.80;78.80;;;;;;4996150;28;20473;-79
2022/10/10 12:43:40;;;;;;;12.30;3.83;;;17.90;78.20;;;;;;5013879;28;20486;-78
2022/10/10 12:46:19;;;;;;;10.43;3.80;;;18.00;78.10;;;;;;4998778;28;20446;-77
2022/10/10 12:49:01;;;;;;;16.90;4.10;;;18.00;78.00;;;;;;4998647;28;20526;-79
2022/10/10 12:51:33;;;;;;;13.33;3.70;;;18.10;77.80;;;;;;4998419;28;21377;-79
2022/10/10 12:54:04;;;;;;;16.43;4.30;;;18.10;77.50;;;;;;4999054;28;20453;-79
2022/10/10 12:56:42;;;;;;;14.60;3.90;;;18.20;76.90;;;;;;5001331;28;20950;-78
2022/10/10 12:59:20;;;;;;;19.77;3.80;;;18.20;76.80;;;;;;4998656;28;20538;-77
2022/10/10 13:01:52;;;;;;;15.37;3.80;;;18.20;76.50;;;;;;4996718;28;21230;-76
2022/10/10 13:04:22;;;;;;;16.10;3.80;;;18.20;76.20;;;;;;5008334;28;20462;-76
2022/10/10 13:06:55;;;;;;;14.70;4.27;;;18.20;76.10;;;;;;4999323;28;20476;-78